sensor_id;sensor_type;location;lat;lon;timestamp;P1;durP1;ratioP1;P2;durP2;ratioP2
70342;SDS011;57767;42.068;24.752;2023-03-14T00:00:56;10.27;;;5.75;;
70342;SDS011;57767;42.068;24.752;2023-03-14T00:01:58;17.33;;;8.02;;
70342;SDS011;57767;42.068;24.752;2023-03-14T00:03:00;13.18;;;7.18;;
70342;SDS011;57767;42.068;24.752;2023-03-14T00:04:03;12.98;;;6.60;;
70342;SDS011;57767;42.068;24.752;2023-03-14T00:05:06;13.80;;;6.53;;
70342;SDS011;57767;42.068;24.752;2023-03-14T00:06:08;11.38;;;6.38;;
70342;SDS011;57767;42.068;24.752;2023-03-14T00:07:12;10.98;;;6.10;;
70342;SDS011;57767;42.068;24.752;2023-03-14T00:08:14;10.75;;;5.75;;
70342;SDS011;57767;42.068;24.752;2023-03-14T00:09:16;9.10;;;4.90;;
70342;SDS011;57767;42.068;24.752;2023-03-14T00:10:18;9.57;;;4.72;;
70342;SDS011;57767;42.068;24.752;2023-03-14T00:11:20;10.85;;;5.40;;
70342;SDS011;57767;42.068;24.752;2023-03-14T00:12:23;20.35;;;7.70;;
70342;SDS011;57767;42.068;24.752;2023-03-14T00:13:25;18.77;;;7.82;;
70342;SDS011;57767;42.068;24.752;2023-03-14T00:14:26;19.10;;;7.10;;
70342;SDS011;57767;42.068;24.752;2023-03-14T00:15:28;24.67;;;8.82;;
70342;SDS011;57767;42.068;24.752;2023-03-14T00:16:30;18.17;;;7.05;;
70342;SDS011;57767;42.068;24.752;2023-03-14T00:17:32;23.40;;;7.97;;
70342;SDS011;57767;42.068;24.752;2023-03-14T00:18:35;21.08;;;8.05;;
70342;SDS011;57767;42.068;24.752;2023-03-14T00:19:37;21.05;;;7.35;;
70342;SDS011;57767;42.068;24.752;2023-03-14T00:20:39;14.13;;;6.10;;
70342;SDS011;57767;42.068;24.752;2023-03-14T00:21:41;17.85;;;6.65;;
70342;SDS011;57767;42.068;24.752;2023-03-14T00:22:42;11.30;;;5.65;;
70342;SDS011;57767;42.068;24.752;2023-03-14T00:23:44;9.25;;;4.95;;
70342;SDS011;57767;42.068;24.752;2023-03-14T00:24:46;8.77;;;4.82;;
70342;SDS011;57767;42.068;24.752;2023-03-14T00:25:48;9.18;;;4.78;;
70342;SDS011;57767;42.068;24.752;2023-03-14T00:26:50;8.73;;;4.72;;
70342;SDS011;57767;42.068;24.752;2023-03-14T00:27:52;8.95;;;4.15;;
70342;SDS011;57767;42.068;24.752;2023-03-14T00:28:54;9.65;;;4.13;;
70342;SDS011;57767;42.068;24.752;2023-03-14T00:29:55;7.82;;;3.97;;
70342;SDS011;57767;42.068;24.752;2023-03-14T00:30:57;4.85;;;3.90;;
70342;SDS011;57767;42.068;24.752;2023-03-14T00:31:59;6.22;;;4.07;;
70342;SDS011;57767;42.068;24.752;2023-03-14T00:33:01;7.75;;;4.20;;
70342;SDS011;57767;42.068;24.752;2023-03-14T00:34:03;8.48;;;3.50;;
70342;SDS011;57767;42.068;24.752;2023-03-14T00:35:05;5.55;;;3.97;;
70342;SDS011;57767;42.068;24.752;2023-03-14T00:36:08;8.18;;;4.25;;
70342;SDS011;57767;42.068;24.752;2023-03-14T00:37:12;6.45;;;3.83;;
70342;SDS011;57767;42.068;24.752;2023-03-14T00:38:14;11.43;;;5.00;;
70342;SDS011;57767;42.068;24.752;2023-03-14T00:39:16;11.13;;;4.90;;
70342;SDS011;57767;42.068;24.752;2023-03-14T00:40:17;8.98;;;4.68;;
70342;SDS011;57767;42.068;24.752;2023-03-14T00:41:20;11.18;;;5.55;;
70342;SDS011;57767;42.068;24.752;2023-03-14T00:42:26;10.05;;;5.18;;
70342;SDS011;57767;42.068;24.752;2023-03-14T00:43:28;9.05;;;5.57;;
70342;SDS011;57767;42.068;24.752;2023-03-14T00:44:30;9.65;;;5.43;;
70342;SDS011;57767;42.068;24.752;2023-03-14T00:45:33;13.90;;;6.40;;
70342;SDS011;57767;42.068;24.752;2023-03-14T00:46:34;7.85;;;5.05;;
70342;SDS011;57767;42.068;24.752;2023-03-14T00:47:37;7.47;;;4.90;;
70342;SDS011;57767;42.068;24.752;2023-03-14T00:48:39;6.03;;;4.30;;
70342;SDS011;57767;42.068;24.752;2023-03-14T00:49:41;5.97;;;4.22;;
70342;SDS011;57767;42.068;24.752;2023-03-14T00:50:44;5.93;;;4.03;;
70342;SDS011;57767;42.068;24.752;2023-03-14T00:51:47;4.85;;;3.63;;
70342;SDS011;57767;42.068;24.752;2023-03-14T00:52:49;4.35;;;3.20;;
70342;SDS011;57767;42.068;24.752;2023-03-14T00:53:51;6.03;;;4.10;;
70342;SDS011;57767;42.068;24.752;2023-03-14T00:54:52;6.20;;;3.97;;
70342;SDS011;57767;42.068;24.752;2023-03-14T00:55:54;7.60;;;5.05;;
70342;SDS011;57767;42.068;24.752;2023-03-14T00:56:56;10.18;;;5.70;;
70342;SDS011;57767;42.068;24.752;2023-03-14T00:57:57;13.77;;;6.65;;
70342;SDS011;57767;42.068;24.752;2023-03-14T00:58:59;12.70;;;7.20;;
70342;SDS011;57767;42.068;24.752;2023-03-14T01:00:01;14.70;;;7.72;;
70342;SDS011;57767;42.068;24.752;2023-03-14T01:01:12;17.13;;;7.45;;
70342;SDS011;57767;42.068;24.752;2023-03-14T01:02:18;18.90;;;8.68;;
70342;SDS011;57767;42.068;24.752;2023-03-14T01:03:20;20.48;;;9.43;;
70342;SDS011;57767;42.068;24.752;2023-03-14T01:04:22;26.55;;;9.65;;
70342;SDS011;57767;42.068;24.752;2023-03-14T01:05:24;21.20;;;9.52;;
70342;SDS011;57767;42.068;24.752;2023-03-14T01:06:26;23.63;;;9.23;;
70342;SDS011;57767;42.068;24.752;2023-03-14T01:07:30;20.10;;;8.95;;
70342;SDS011;57767;42.068;24.752;2023-03-14T01:08:32;18.13;;;7.63;;
70342;SDS011;57767;42.068;24.752;2023-03-14T01:09:33;18.00;;;8.02;;
70342;SDS011;57767;42.068;24.752;2023-03-14T01:10:38;17.95;;;7.35;;
70342;SDS011;57767;42.068;24.752;2023-03-14T01:11:41;13.05;;;5.82;;
70342;SDS011;57767;42.068;24.752;2023-03-14T01:12:44;14.50;;;6.18;;
70342;SDS011;57767;42.068;24.752;2023-03-14T01:13:46;13.98;;;6.25;;
70342;SDS011;57767;42.068;24.752;2023-03-14T01:14:48;11.82;;;6.00;;
70342;SDS011;57767;42.068;24.752;2023-03-14T01:15:49;12.40;;;6.15;;
70342;SDS011;57767;42.068;24.752;2023-03-14T01:16:51;12.10;;;6.00;;
70342;SDS011;57767;42.068;24.752;2023-03-14T01:17:53;10.27;;;5.43;;
70342;SDS011;57767;42.068;24.752;2023-03-14T01:18:55;9.68;;;4.82;;
70342;SDS011;57767;42.068;24.752;2023-03-14T01:19:57;11.20;;;4.68;;
70342;SDS011;57767;42.068;24.752;2023-03-14T01:20:59;7.82;;;4.85;;
70342;SDS011;57767;42.068;24.752;2023-03-14T01:22:00;9.25;;;5.40;;
70342;SDS011;57767;42.068;24.752;2023-03-14T01:23:02;8.30;;;5.00;;
70342;SDS011;57767;42.068;24.752;2023-03-14T01:24:04;7.45;;;4.75;;
70342;SDS011;57767;42.068;24.752;2023-03-14T01:25:07;8.50;;;4.95;;
70342;SDS011;57767;42.068;24.752;2023-03-14T01:26:12;9.35;;;4.53;;
70342;SDS011;57767;42.068;24.752;2023-03-14T01:27:15;7.32;;;4.93;;
70342;SDS011;57767;42.068;24.752;2023-03-14T01:28:17;7.70;;;5.13;;
70342;SDS011;57767;42.068;24.752;2023-03-14T01:29:18;7.22;;;4.88;;
70342;SDS011;57767;42.068;24.752;2023-03-14T01:30:20;7.68;;;5.10;;
70342;SDS011;57767;42.068;24.752;2023-03-14T01:31:23;7.38;;;5.35;;
70342;SDS011;57767;42.068;24.752;2023-03-14T01:32:25;8.70;;;4.72;;
70342;SDS011;57767;42.068;24.752;2023-03-14T01:33:27;11.88;;;5.28;;
70342;SDS011;57767;42.068;24.752;2023-03-14T01:34:29;6.70;;;4.90;;
70342;SDS011;57767;42.068;24.752;2023-03-14T01:35:31;7.05;;;5.25;;
70342;SDS011;57767;42.068;24.752;2023-03-14T01:36:32;6.38;;;4.85;;
70342;SDS011;57767;42.068;24.752;2023-03-14T01:37:34;7.00;;;5.13;;
70342;SDS011;57767;42.068;24.752;2023-03-14T01:38:36;8.85;;;5.47;;
70342;SDS011;57767;42.068;24.752;2023-03-14T01:39:39;8.50;;;5.18;;
70342;SDS011;57767;42.068;24.752;2023-03-14T01:40:42;9.00;;;5.65;;
70342;SDS011;57767;42.068;24.752;2023-03-14T01:41:45;8.00;;;4.95;;
70342;SDS011;57767;42.068;24.752;2023-03-14T01:42:53;9.00;;;5.30;;
70342;SDS011;57767;42.068;24.752;2023-03-14T01:43:59;8.68;;;5.68;;
70342;SDS011;57767;42.068;24.752;2023-03-14T01:45:01;9.23;;;5.40;;
70342;SDS011;57767;42.068;24.752;2023-03-14T01:47:06;9.60;;;6.45;;
70342;SDS011;57767;42.068;24.752;2023-03-14T01:48:07;9.07;;;6.15;;
70342;SDS011;57767;42.068;24.752;2023-03-14T01:50:20;8.35;;;6.07;;
70342;SDS011;57767;42.068;24.752;2023-03-14T01:51:27;9.30;;;6.30;;
70342;SDS011;57767;42.068;24.752;2023-03-14T01:52:36;9.07;;;5.97;;
70342;SDS011;57767;42.068;24.752;2023-03-14T01:53:44;11.10;;;6.18;;
70342;SDS011;57767;42.068;24.752;2023-03-14T01:54:47;7.38;;;6.03;;
70342;SDS011;57767;42.068;24.752;2023-03-14T01:55:54;10.60;;;6.40;;
70342;SDS011;57767;42.068;24.752;2023-03-14T01:58:31;8.20;;;6.00;;
70342;SDS011;57767;42.068;24.752;2023-03-14T01:59:35;8.10;;;5.97;;
70342;SDS011;57767;42.068;24.752;2023-03-14T02:00:39;8.50;;;5.35;;
70342;SDS011;57767;42.068;24.752;2023-03-14T02:01:42;11.27;;;6.05;;
70342;SDS011;57767;42.068;24.752;2023-03-14T02:02:53;10.73;;;6.60;;
70342;SDS011;57767;42.068;24.752;2023-03-14T02:03:59;10.80;;;6.28;;
70342;SDS011;57767;42.068;24.752;2023-03-14T02:05:04;8.38;;;6.15;;
70342;SDS011;57767;42.068;24.752;2023-03-14T02:06:07;8.38;;;6.10;;
70342;SDS011;57767;42.068;24.752;2023-03-14T02:07:12;9.98;;;6.10;;
70342;SDS011;57767;42.068;24.752;2023-03-14T02:08:18;12.02;;;6.50;;
70342;SDS011;57767;42.068;24.752;2023-03-14T02:09:21;11.57;;;6.45;;
70342;SDS011;57767;42.068;24.752;2023-03-14T02:10:27;12.75;;;6.93;;
70342;SDS011;57767;42.068;24.752;2023-03-14T02:11:32;13.95;;;6.80;;
70342;SDS011;57767;42.068;24.752;2023-03-14T02:12:34;10.93;;;7.13;;
70342;SDS011;57767;42.068;24.752;2023-03-14T02:13:37;12.70;;;6.90;;
70342;SDS011;57767;42.068;24.752;2023-03-14T02:14:39;10.10;;;6.90;;
70342;SDS011;57767;42.068;24.752;2023-03-14T02:15:43;13.48;;;7.65;;
70342;SDS011;57767;42.068;24.752;2023-03-14T02:16:47;12.63;;;6.93;;
70342;SDS011;57767;42.068;24.752;2023-03-14T02:17:49;13.00;;;7.32;;
70342;SDS011;57767;42.068;24.752;2023-03-14T02:18:51;11.57;;;7.43;;
70342;SDS011;57767;42.068;24.752;2023-03-14T02:22:33;10.77;;;6.35;;
70342;SDS011;57767;42.068;24.752;2023-03-14T02:26:26;11.77;;;5.88;;
70342;SDS011;57767;42.068;24.752;2023-03-14T02:27:33;10.20;;;6.55;;
70342;SDS011;57767;42.068;24.752;2023-03-14T02:28:35;8.70;;;6.18;;
70342;SDS011;57767;42.068;24.752;2023-03-14T02:29:39;8.98;;;6.15;;
70342;SDS011;57767;42.068;24.752;2023-03-14T02:30:47;11.93;;;6.40;;
70342;SDS011;57767;42.068;24.752;2023-03-14T02:31:49;10.25;;;6.53;;
70342;SDS011;57767;42.068;24.752;2023-03-14T02:32:52;13.90;;;7.10;;
70342;SDS011;57767;42.068;24.752;2023-03-14T02:33:59;10.48;;;6.13;;
70342;SDS011;57767;42.068;24.752;2023-03-14T02:35:06;9.07;;;6.10;;
70342;SDS011;57767;42.068;24.752;2023-03-14T02:36:12;10.77;;;6.45;;
70342;SDS011;57767;42.068;24.752;2023-03-14T02:37:15;9.77;;;6.75;;
70342;SDS011;57767;42.068;24.752;2023-03-14T02:39:33;11.93;;;6.97;;
70342;SDS011;57767;42.068;24.752;2023-03-14T02:40:39;10.48;;;6.28;;
70342;SDS011;57767;42.068;24.752;2023-03-14T02:41:41;10.45;;;6.50;;
70342;SDS011;57767;42.068;24.752;2023-03-14T02:42:43;11.57;;;6.90;;
70342;SDS011;57767;42.068;24.752;2023-03-14T02:43:46;8.15;;;6.28;;
70342;SDS011;57767;42.068;24.752;2023-03-14T02:44:54;10.88;;;6.88;;
70342;SDS011;57767;42.068;24.752;2023-03-14T02:46:03;11.55;;;6.22;;
70342;SDS011;57767;42.068;24.752;2023-03-14T02:47:07;16.50;;;7.18;;
70342;SDS011;57767;42.068;24.752;2023-03-14T02:48:11;11.48;;;6.65;;
70342;SDS011;57767;42.068;24.752;2023-03-14T02:49:26;10.15;;;6.60;;
70342;SDS011;57767;42.068;24.752;2023-03-14T02:50:31;8.38;;;5.93;;
70342;SDS011;57767;42.068;24.752;2023-03-14T02:51:35;11.48;;;6.80;;
70342;SDS011;57767;42.068;24.752;2023-03-14T02:52:38;12.00;;;7.03;;
70342;SDS011;57767;42.068;24.752;2023-03-14T02:53:40;10.73;;;7.03;;
70342;SDS011;57767;42.068;24.752;2023-03-14T02:54:42;11.45;;;7.80;;
70342;SDS011;57767;42.068;24.752;2023-03-14T02:55:45;10.05;;;6.97;;
70342;SDS011;57767;42.068;24.752;2023-03-14T02:56:47;10.77;;;6.57;;
70342;SDS011;57767;42.068;24.752;2023-03-14T02:57:49;10.57;;;6.35;;
70342;SDS011;57767;42.068;24.752;2023-03-14T02:58:51;11.35;;;6.72;;
70342;SDS011;57767;42.068;24.752;2023-03-14T02:59:53;11.57;;;7.50;;
70342;SDS011;57767;42.068;24.752;2023-03-14T03:00:55;9.77;;;7.60;;
70342;SDS011;57767;42.068;24.752;2023-03-14T03:01:59;11.82;;;8.60;;
70342;SDS011;57767;42.068;24.752;2023-03-14T03:03:01;10.82;;;7.63;;
70342;SDS011;57767;42.068;24.752;2023-03-14T03:04:03;9.70;;;7.60;;
70342;SDS011;57767;42.068;24.752;2023-03-14T03:05:05;8.85;;;7.03;;
70342;SDS011;57767;42.068;24.752;2023-03-14T03:06:07;12.48;;;6.80;;
70342;SDS011;57767;42.068;24.752;2023-03-14T03:07:09;8.70;;;6.53;;
70342;SDS011;57767;42.068;24.752;2023-03-14T03:08:10;9.05;;;6.38;;
70342;SDS011;57767;42.068;24.752;2023-03-14T03:09:12;8.93;;;6.53;;
70342;SDS011;57767;42.068;24.752;2023-03-14T03:10:14;11.00;;;6.50;;
70342;SDS011;57767;42.068;24.752;2023-03-14T03:11:16;10.00;;;6.57;;
70342;SDS011;57767;42.068;24.752;2023-03-14T03:12:17;12.55;;;6.75;;
70342;SDS011;57767;42.068;24.752;2023-03-14T03:13:19;12.65;;;6.80;;
70342;SDS011;57767;42.068;24.752;2023-03-14T03:14:21;11.07;;;6.68;;
70342;SDS011;57767;42.068;24.752;2023-03-14T03:15:23;11.25;;;6.32;;
70342;SDS011;57767;42.068;24.752;2023-03-14T03:16:25;10.60;;;7.40;;
70342;SDS011;57767;42.068;24.752;2023-03-14T03:17:27;13.00;;;7.90;;
70342;SDS011;57767;42.068;24.752;2023-03-14T03:18:29;12.10;;;7.40;;
70342;SDS011;57767;42.068;24.752;2023-03-14T03:19:31;9.68;;;6.97;;
70342;SDS011;57767;42.068;24.752;2023-03-14T03:20:33;10.43;;;7.47;;
70342;SDS011;57767;42.068;24.752;2023-03-14T03:21:35;11.65;;;7.30;;
70342;SDS011;57767;42.068;24.752;2023-03-14T03:22:37;13.20;;;7.60;;
70342;SDS011;57767;42.068;24.752;2023-03-14T03:23:39;9.45;;;7.20;;
70342;SDS011;57767;42.068;24.752;2023-03-14T03:24:41;10.88;;;8.13;;
70342;SDS011;57767;42.068;24.752;2023-03-14T03:25:47;15.70;;;8.07;;
70342;SDS011;57767;42.068;24.752;2023-03-14T03:26:49;17.17;;;8.38;;
70342;SDS011;57767;42.068;24.752;2023-03-14T03:27:51;13.35;;;8.77;;
70342;SDS011;57767;42.068;24.752;2023-03-14T03:28:54;13.77;;;8.27;;
70342;SDS011;57767;42.068;24.752;2023-03-14T03:29:55;13.65;;;8.73;;
70342;SDS011;57767;42.068;24.752;2023-03-14T03:30:57;11.32;;;8.55;;
70342;SDS011;57767;42.068;24.752;2023-03-14T03:31:59;12.88;;;8.70;;
70342;SDS011;57767;42.068;24.752;2023-03-14T03:33:01;13.73;;;8.20;;
70342;SDS011;57767;42.068;24.752;2023-03-14T03:34:03;18.63;;;10.52;;
70342;SDS011;57767;42.068;24.752;2023-03-14T03:35:05;17.67;;;10.55;;
70342;SDS011;57767;42.068;24.752;2023-03-14T03:36:07;17.02;;;9.18;;
70342;SDS011;57767;42.068;24.752;2023-03-14T03:37:10;13.63;;;9.25;;
70342;SDS011;57767;42.068;24.752;2023-03-14T03:38:11;18.10;;;9.85;;
70342;SDS011;57767;42.068;24.752;2023-03-14T03:39:13;16.33;;;10.95;;
70342;SDS011;57767;42.068;24.752;2023-03-14T03:40:15;17.65;;;10.35;;
70342;SDS011;57767;42.068;24.752;2023-03-14T03:41:17;18.50;;;11.52;;
70342;SDS011;57767;42.068;24.752;2023-03-14T03:42:19;17.25;;;11.48;;
70342;SDS011;57767;42.068;24.752;2023-03-14T03:43:20;15.05;;;10.25;;
70342;SDS011;57767;42.068;24.752;2023-03-14T03:44:22;13.60;;;8.98;;
70342;SDS011;57767;42.068;24.752;2023-03-14T03:45:24;11.95;;;8.57;;
70342;SDS011;57767;42.068;24.752;2023-03-14T03:46:26;12.38;;;8.18;;
70342;SDS011;57767;42.068;24.752;2023-03-14T03:47:29;11.48;;;8.20;;
70342;SDS011;57767;42.068;24.752;2023-03-14T03:48:32;9.13;;;7.55;;
70342;SDS011;57767;42.068;24.752;2023-03-14T03:49:34;11.93;;;7.88;;
70342;SDS011;57767;42.068;24.752;2023-03-14T03:50:36;11.48;;;7.68;;
70342;SDS011;57767;42.068;24.752;2023-03-14T03:51:38;10.25;;;6.93;;
70342;SDS011;57767;42.068;24.752;2023-03-14T03:52:41;11.15;;;7.40;;
70342;SDS011;57767;42.068;24.752;2023-03-14T03:53:43;10.35;;;6.63;;
70342;SDS011;57767;42.068;24.752;2023-03-14T03:54:44;8.93;;;6.93;;
70342;SDS011;57767;42.068;24.752;2023-03-14T03:55:46;10.43;;;6.60;;
70342;SDS011;57767;42.068;24.752;2023-03-14T03:56:48;10.63;;;6.80;;
70342;SDS011;57767;42.068;24.752;2023-03-14T03:57:50;10.30;;;7.00;;
70342;SDS011;57767;42.068;24.752;2023-03-14T03:58:52;14.48;;;6.55;;
70342;SDS011;57767;42.068;24.752;2023-03-14T03:59:53;10.93;;;6.88;;
70342;SDS011;57767;42.068;24.752;2023-03-14T04:00:55;10.25;;;6.68;;
70342;SDS011;57767;42.068;24.752;2023-03-14T04:01:57;10.88;;;6.93;;
70342;SDS011;57767;42.068;24.752;2023-03-14T04:02:59;10.77;;;6.75;;
70342;SDS011;57767;42.068;24.752;2023-03-14T04:04:02;11.93;;;7.07;;
70342;SDS011;57767;42.068;24.752;2023-03-14T04:05:04;8.70;;;6.45;;
70342;SDS011;57767;42.068;24.752;2023-03-14T04:06:07;12.15;;;7.30;;
70342;SDS011;57767;42.068;24.752;2023-03-14T04:07:13;12.10;;;7.15;;
70342;SDS011;57767;42.068;24.752;2023-03-14T04:08:16;11.20;;;7.45;;
70342;SDS011;57767;42.068;24.752;2023-03-14T04:09:17;11.15;;;7.13;;
70342;SDS011;57767;42.068;24.752;2023-03-14T04:10:19;11.70;;;7.75;;
70342;SDS011;57767;42.068;24.752;2023-03-14T04:11:21;15.68;;;8.13;;
70342;SDS011;57767;42.068;24.752;2023-03-14T04:12:22;31.80;;;12.25;;
70342;SDS011;57767;42.068;24.752;2023-03-14T04:13:25;30.85;;;12.75;;
70342;SDS011;57767;42.068;24.752;2023-03-14T04:14:27;31.02;;;11.63;;
70342;SDS011;57767;42.068;24.752;2023-03-14T04:15:29;28.17;;;12.32;;
70342;SDS011;57767;42.068;24.752;2023-03-14T04:16:30;28.80;;;12.02;;
70342;SDS011;57767;42.068;24.752;2023-03-14T04:17:32;30.10;;;11.65;;
70342;SDS011;57767;42.068;24.752;2023-03-14T04:18:34;24.45;;;9.90;;
70342;SDS011;57767;42.068;24.752;2023-03-14T04:19:36;23.63;;;10.40;;
70342;SDS011;57767;42.068;24.752;2023-03-14T04:20:38;23.52;;;10.02;;
70342;SDS011;57767;42.068;24.752;2023-03-14T04:21:39;22.15;;;10.60;;
70342;SDS011;57767;42.068;24.752;2023-03-14T04:22:46;26.30;;;9.70;;
70342;SDS011;57767;42.068;24.752;2023-03-14T04:23:47;20.17;;;10.63;;
70342;SDS011;57767;42.068;24.752;2023-03-14T04:24:49;25.50;;;9.98;;
70342;SDS011;57767;42.068;24.752;2023-03-14T04:25:51;26.48;;;10.48;;
70342;SDS011;57767;42.068;24.752;2023-03-14T04:26:54;16.13;;;8.50;;
70342;SDS011;57767;42.068;24.752;2023-03-14T04:27:56;20.63;;;8.90;;
70342;SDS011;57767;42.068;24.752;2023-03-14T04:28:57;14.68;;;8.40;;
70342;SDS011;57767;42.068;24.752;2023-03-14T04:29:59;12.82;;;7.55;;
70342;SDS011;57767;42.068;24.752;2023-03-14T04:31:06;15.10;;;6.88;;
70342;SDS011;57767;42.068;24.752;2023-03-14T04:32:12;15.60;;;6.75;;
70342;SDS011;57767;42.068;24.752;2023-03-14T04:33:13;16.30;;;7.15;;
70342;SDS011;57767;42.068;24.752;2023-03-14T04:34:18;15.77;;;7.85;;
70342;SDS011;57767;42.068;24.752;2023-03-14T04:35:20;11.48;;;7.10;;
70342;SDS011;57767;42.068;24.752;2023-03-14T04:36:22;14.13;;;7.35;;
70342;SDS011;57767;42.068;24.752;2023-03-14T04:37:24;13.63;;;7.53;;
70342;SDS011;57767;42.068;24.752;2023-03-14T04:38:25;15.32;;;7.97;;
70342;SDS011;57767;42.068;24.752;2023-03-14T04:39:27;15.82;;;7.78;;
70342;SDS011;57767;42.068;24.752;2023-03-14T04:40:29;14.70;;;8.95;;
70342;SDS011;57767;42.068;24.752;2023-03-14T04:41:31;13.45;;;9.30;;
70342;SDS011;57767;42.068;24.752;2023-03-14T04:42:32;14.98;;;9.25;;
70342;SDS011;57767;42.068;24.752;2023-03-14T04:43:34;15.05;;;9.50;;
70342;SDS011;57767;42.068;24.752;2023-03-14T04:44:36;14.80;;;8.95;;
70342;SDS011;57767;42.068;24.752;2023-03-14T04:45:41;21.58;;;9.15;;
70342;SDS011;57767;42.068;24.752;2023-03-14T04:46:43;16.30;;;9.35;;
70342;SDS011;57767;42.068;24.752;2023-03-14T04:47:45;19.75;;;9.90;;
70342;SDS011;57767;42.068;24.752;2023-03-14T04:48:47;13.55;;;8.77;;
70342;SDS011;57767;42.068;24.752;2023-03-14T04:49:48;15.65;;;8.65;;
70342;SDS011;57767;42.068;24.752;2023-03-14T04:50:50;15.88;;;8.13;;
70342;SDS011;57767;42.068;24.752;2023-03-14T04:51:52;14.43;;;8.85;;
70342;SDS011;57767;42.068;24.752;2023-03-14T04:52:54;12.65;;;8.52;;
70342;SDS011;57767;42.068;24.752;2023-03-14T04:53:56;16.38;;;9.35;;
70342;SDS011;57767;42.068;24.752;2023-03-14T04:54:58;16.73;;;9.52;;
70342;SDS011;57767;42.068;24.752;2023-03-14T04:55:59;13.90;;;8.82;;
70342;SDS011;57767;42.068;24.752;2023-03-14T04:57:01;12.23;;;8.60;;
70342;SDS011;57767;42.068;24.752;2023-03-14T04:58:03;11.57;;;7.10;;
70342;SDS011;57767;42.068;24.752;2023-03-14T04:59:04;14.18;;;7.53;;
70342;SDS011;57767;42.068;24.752;2023-03-14T05:00:07;12.20;;;8.02;;
70342;SDS011;57767;42.068;24.752;2023-03-14T05:01:10;12.10;;;7.22;;
70342;SDS011;57767;42.068;24.752;2023-03-14T05:02:12;12.55;;;7.28;;
70342;SDS011;57767;42.068;24.752;2023-03-14T05:03:14;11.07;;;7.07;;
70342;SDS011;57767;42.068;24.752;2023-03-14T05:04:17;11.32;;;7.53;;
70342;SDS011;57767;42.068;24.752;2023-03-14T05:05:19;12.23;;;7.05;;
70342;SDS011;57767;42.068;24.752;2023-03-14T05:06:21;12.95;;;7.40;;
70342;SDS011;57767;42.068;24.752;2023-03-14T05:07:23;12.57;;;7.55;;
70342;SDS011;57767;42.068;24.752;2023-03-14T05:08:25;13.15;;;8.50;;
70342;SDS011;57767;42.068;24.752;2023-03-14T05:09:27;12.93;;;7.43;;
70342;SDS011;57767;42.068;24.752;2023-03-14T05:10:29;10.73;;;7.80;;
70342;SDS011;57767;42.068;24.752;2023-03-14T05:11:31;16.02;;;8.68;;
70342;SDS011;57767;42.068;24.752;2023-03-14T05:12:34;16.92;;;9.05;;
70342;SDS011;57767;42.068;24.752;2023-03-14T05:13:35;18.52;;;9.55;;
70342;SDS011;57767;42.068;24.752;2023-03-14T05:14:40;21.20;;;10.02;;
70342;SDS011;57767;42.068;24.752;2023-03-14T05:15:42;17.50;;;10.68;;
70342;SDS011;57767;42.068;24.752;2023-03-14T05:16:43;16.70;;;10.07;;
70342;SDS011;57767;42.068;24.752;2023-03-14T05:17:45;16.90;;;9.02;;
70342;SDS011;57767;42.068;24.752;2023-03-14T05:18:47;17.20;;;9.80;;
70342;SDS011;57767;42.068;24.752;2023-03-14T05:19:49;17.95;;;9.18;;
70342;SDS011;57767;42.068;24.752;2023-03-14T05:20:51;16.02;;;9.80;;
70342;SDS011;57767;42.068;24.752;2023-03-14T05:21:53;19.13;;;9.60;;
70342;SDS011;57767;42.068;24.752;2023-03-14T05:22:55;28.02;;;12.82;;
70342;SDS011;57767;42.068;24.752;2023-03-14T05:23:56;24.92;;;13.77;;
70342;SDS011;57767;42.068;24.752;2023-03-14T05:24:58;24.45;;;13.43;;
70342;SDS011;57767;42.068;24.752;2023-03-14T05:26:00;21.88;;;12.57;;
70342;SDS011;57767;42.068;24.752;2023-03-14T05:27:02;23.52;;;13.45;;
70342;SDS011;57767;42.068;24.752;2023-03-14T05:28:04;26.92;;;12.77;;
70342;SDS011;57767;42.068;24.752;2023-03-14T05:29:06;20.15;;;12.50;;
70342;SDS011;57767;42.068;24.752;2023-03-14T05:30:08;21.40;;;10.52;;
70342;SDS011;57767;42.068;24.752;2023-03-14T05:31:10;16.35;;;10.55;;
70342;SDS011;57767;42.068;24.752;2023-03-14T05:32:12;14.73;;;9.65;;
70342;SDS011;57767;42.068;24.752;2023-03-14T05:33:14;14.98;;;8.98;;
70342;SDS011;57767;42.068;24.752;2023-03-14T05:34:16;18.67;;;9.82;;
70342;SDS011;57767;42.068;24.752;2023-03-14T05:35:17;14.32;;;9.00;;
70342;SDS011;57767;42.068;24.752;2023-03-14T05:36:19;13.60;;;8.63;;
70342;SDS011;57767;42.068;24.752;2023-03-14T05:37:21;16.23;;;9.23;;
70342;SDS011;57767;42.068;24.752;2023-03-14T05:38:22;12.30;;;8.68;;
70342;SDS011;57767;42.068;24.752;2023-03-14T05:39:24;14.82;;;8.95;;
70342;SDS011;57767;42.068;24.752;2023-03-14T05:40:26;15.50;;;8.60;;
70342;SDS011;57767;42.068;24.752;2023-03-14T05:41:28;17.13;;;8.40;;
70342;SDS011;57767;42.068;24.752;2023-03-14T05:42:30;13.18;;;8.65;;
70342;SDS011;57767;42.068;24.752;2023-03-14T05:43:32;19.33;;;8.27;;
70342;SDS011;57767;42.068;24.752;2023-03-14T05:44:34;14.55;;;7.80;;
70342;SDS011;57767;42.068;24.752;2023-03-14T05:45:35;13.05;;;8.10;;
70342;SDS011;57767;42.068;24.752;2023-03-14T05:46:37;13.75;;;7.85;;
70342;SDS011;57767;42.068;24.752;2023-03-14T05:47:39;15.73;;;8.95;;
70342;SDS011;57767;42.068;24.752;2023-03-14T05:48:41;12.85;;;8.80;;
70342;SDS011;57767;42.068;24.752;2023-03-14T05:49:42;10.60;;;8.00;;
70342;SDS011;57767;42.068;24.752;2023-03-14T05:50:44;14.68;;;8.35;;
70342;SDS011;57767;42.068;24.752;2023-03-14T05:51:46;11.68;;;8.30;;
70342;SDS011;57767;42.068;24.752;2023-03-14T05:52:48;11.85;;;8.10;;
70342;SDS011;57767;42.068;24.752;2023-03-14T05:53:50;11.75;;;7.68;;
70342;SDS011;57767;42.068;24.752;2023-03-14T05:54:51;9.27;;;7.32;;
70342;SDS011;57767;42.068;24.752;2023-03-14T05:55:53;11.32;;;7.55;;
70342;SDS011;57767;42.068;24.752;2023-03-14T05:56:58;10.23;;;7.53;;
70342;SDS011;57767;42.068;24.752;2023-03-14T05:58:00;11.88;;;7.32;;
70342;SDS011;57767;42.068;24.752;2023-03-14T05:59:01;13.65;;;8.20;;
70342;SDS011;57767;42.068;24.752;2023-03-14T06:00:04;11.90;;;7.45;;
70342;SDS011;57767;42.068;24.752;2023-03-14T06:01:07;12.02;;;7.47;;
70342;SDS011;57767;42.068;24.752;2023-03-14T06:02:09;12.02;;;8.75;;
70342;SDS011;57767;42.068;24.752;2023-03-14T06:03:11;14.88;;;9.25;;
70342;SDS011;57767;42.068;24.752;2023-03-14T06:04:13;12.57;;;8.50;;
70342;SDS011;57767;42.068;24.752;2023-03-14T06:05:14;11.98;;;9.07;;
70342;SDS011;57767;42.068;24.752;2023-03-14T06:06:16;16.02;;;8.70;;
70342;SDS011;57767;42.068;24.752;2023-03-14T06:07:18;15.43;;;8.98;;
70342;SDS011;57767;42.068;24.752;2023-03-14T06:08:20;14.70;;;9.05;;
70342;SDS011;57767;42.068;24.752;2023-03-14T06:09:22;14.18;;;9.57;;
70342;SDS011;57767;42.068;24.752;2023-03-14T06:10:24;16.77;;;9.10;;
70342;SDS011;57767;42.068;24.752;2023-03-14T06:11:26;18.90;;;9.57;;
70342;SDS011;57767;42.068;24.752;2023-03-14T06:12:28;22.58;;;9.70;;
70342;SDS011;57767;42.068;24.752;2023-03-14T06:13:29;11.13;;;9.07;;
70342;SDS011;57767;42.068;24.752;2023-03-14T06:14:31;15.52;;;9.40;;
70342;SDS011;57767;42.068;24.752;2023-03-14T06:15:33;15.60;;;8.88;;
70342;SDS011;57767;42.068;24.752;2023-03-14T06:16:36;12.77;;;8.70;;
70342;SDS011;57767;42.068;24.752;2023-03-14T06:17:38;14.57;;;9.57;;